Terminal Aerodrome Forecast
Issued by NWS

Home | Current Version | Previous Version | Text Only | Print | Product List | Glossary On
Versions: 1 2 3 4 5 6 7 8 9 10 11 12 13 14 15 16 17 18 19 20 21
000
FTUS43 KEAX 282100 AAA
TAFSTJ
TAF AMD
KSTJ 282106Z 2821/2918 16011KT P6SM SCT060 SCT180
     FM290200 15008KT P6SM SCT060 BKN120
     FM291000 17010KT P6SM VCTS SCT050CB BKN100=

USA.gov is the U.S. government's official web portal to all federal, state and local government web resources and services.